Time;durP1;ratioP1;P1;durP2;ratioP2;P2;SDS_P1;SDS_P2;PMS_P1;PMS_P2;Temp;Humidity;BMP_temperature;BMP_pressure;BME280_temperature;BME280_humidity;BME280_pressure;Samples;Min_cycle;Max_cycle;Signal;HPM_P1;HPM_P2
2023/05/28 00:01:44;;;;;;;6.70;4.30;;;;;;;16.90;nan;-24288.06;5031048;28;20206;-69
2023/05/28 00:04:09;;;;;;;6.93;4.25;;;;;;;16.90;nan;-24287.91;5031047;28;20207;-70
2023/05/28 00:06:35;;;;;;;7.45;4.03;;;;;;;16.65;nan;-24281.22;5063226;28;20179;-69
2023/05/28 00:09:00;;;;;;;6.28;4.05;;;;;;;16.73;nan;-24283.31;5031575;28;20179;-67
2023/05/28 00:11:26;;;;;;;9.45;4.10;;;;;;;16.64;nan;-24280.94;5032052;28;20183;-67
2023/05/28 00:13:51;;;;;;;5.50;3.38;;;;;;;16.70;nan;-24280.56;5032093;28;20179;-68
2023/05/28 00:16:16;;;;;;;6.13;3.78;;;;;;;16.78;nan;-24282.94;5031333;28;20642;-68
2023/05/28 00:18:42;;;;;;;6.30;3.58;;;;;;;16.79;nan;-24285.13;5031186;28;20182;-68
2023/05/28 00:21:07;;;;;;;5.63;3.33;;;;;;;16.92;nan;-24288.63;5022877;28;20187;-67
2023/05/28 00:23:33;;;;;;;6.25;3.78;;;;;;;16.79;nan;-24285.13;5031479;28;20195;-69
2023/05/28 00:25:58;;;;;;;5.35;3.42;;;;;;;16.89;nan;-24285.75;5030071;28;20317;-69
2023/05/28 00:28:23;;;;;;;5.40;3.40;;;;;;;16.87;nan;-23641.56;5031914;28;20183;-69
2023/05/28 00:30:49;;;;;;;6.68;3.85;;;;;;;16.57;nan;-24277.09;5030683;28;20184;-69
2023/05/28 00:33:14;;;;;;;4.32;3.10;;;;;;;16.67;nan;-24281.63;5030867;28;20262;-69
2023/05/28 00:35:40;;;;;;;4.18;3.13;;;;;;;16.59;nan;-24277.66;5031576;28;20518;-69
2023/05/28 00:38:05;;;;;;;5.43;3.33;;;;;;;16.75;nan;-23960.31;5033524;28;20183;-67
2023/05/28 00:40:31;;;;;;;5.35;3.22;;;;;;;16.84;nan;-23640.75;5031119;28;20183;-68
2023/05/28 00:42:56;;;;;;;5.65;3.45;;;;;;;16.67;nan;-23958.09;5029782;28;20248;-71
2023/05/28 00:45:22;;;;;;;4.70;3.10;;;;;;;16.58;nan;-22346.53;5031241;28;20285;-68
2023/05/28 00:47:48;;;;;;;4.40;3.05;;;;;;;16.77;nan;-22351.25;5030207;28;20210;-67
2023/05/28 00:50:16;;;;;;;4.28;2.88;;;;;;;16.59;nan;-22346.66;5030903;28;20662;-67
2023/05/28 00:52:45;;;;;;;8.63;3.25;;;;;;;16.65;nan;-22992.06;5030396;28;20202;-69
2023/05/28 00:55:14;;;;;;;4.93;3.22;;;;;;;16.63;nan;-22991.44;5030152;28;20197;-67
2023/05/28 00:57:41;;;;;;;5.75;3.30;;;;;;;16.59;nan;-23312.22;5026584;28;20179;-66
2023/05/28 01:00:08;;;;;;;7.40;3.50;;;;;;;16.79;nan;-23639.53;5030276;28;20227;-67
2023/05/28 01:02:34;;;;;;;5.05;3.40;;;;;;;16.58;nan;-23955.50;5030475;28;20179;-69
2023/05/28 01:04:59;;;;;;;5.55;3.10;;;;;;;16.66;nan;-23957.69;5030758;28;20294;-69
2023/05/28 01:07:25;;;;;;;4.97;3.28;;;;;;;16.44;nan;-23951.78;5031153;28;20223;-67
2023/05/28 01:09:50;;;;;;;10.88;3.40;;;;;;;16.66;nan;-24279.47;5031513;28;20241;-67
2023/05/28 01:12:17;;;;;;;4.97;3.17;;;;;;;16.50;nan;-24275.00;5030776;28;20187;-69
2023/05/28 01:14:43;;;;;;;5.45;3.70;;;;;;;16.50;nan;-23953.44;5029814;28;20168;-66
2023/05/28 01:17:09;;;;;;;4.43;3.13;;;;;;;16.63;nan;-23957.00;5030557;28;20268;-69
2023/05/28 01:19:35;;;;;;;7.28;3.33;;;;;;;16.39;nan;-22663.47;5030841;28;20266;-66
2023/05/28 01:22:05;;;;;;;5.25;3.08;;;;;;;16.47;nan;-22987.41;5030037;28;20245;-68
2023/05/28 01:24:39;;;;;;;7.10;3.38;;;;;;;16.46;nan;-23308.78;5031141;28;20214;-67
2023/05/28 01:27:06;;;;;;;3.60;3.00;;;;;;;16.53;nan;-23632.41;5029884;28;20292;-67
2023/05/28 01:29:31;;;;;;;5.53;3.47;;;;;;;16.60;nan;-23312.63;5031463;28;20615;-66
2023/05/28 01:31:57;;;;;;;8.63;3.05;;;;;;;16.35;nan;-20409.66;5029882;28;20191;-65
2023/05/28 01:34:23;;;;;;;5.40;2.80;;;;;;;16.63;nan;-18482.22;5030711;28;20191;-69
2023/05/28 01:36:57;;;;;;;4.85;2.85;;;;;;;16.80;nan;-17195.53;5029833;28;20693;-68
2023/05/28 01:39:26;;;;;;;5.60;2.70;;;;;;;16.37;nan;-18477.50;5031637;28;20183;-66
2023/05/28 01:41:53;;;;;;;4.78;3.03;;;;;;;16.77;nan;-15582.06;5033196;28;20179;-67
2023/05/28 01:44:19;;;;;;;4.90;2.97;;;;;;;16.80;nan;-12677.00;5028791;28;20206;-67
2023/05/28 01:46:46;;;;;;;5.95;2.80;;;;;;;16.81;nan;-13645.88;5034572;28;20183;-70
2023/05/28 01:49:12;;;;;;;5.18;2.97;;;;;;;16.72;nan;-15581.44;5034022;28;20270;-66
2023/05/28 01:51:38;;;;;;;5.07;3.08;;;;;;;16.76;nan;-15904.59;5035165;28;20179;-69
2023/05/28 01:54:04;;;;;;;4.15;2.92;;;;;;;16.76;nan;-15259.25;5033377;28;20180;-67
2023/05/28 01:56:29;;;;;;;3.20;2.70;;;;;;;16.47;nan;-14287.63;5033970;28;20183;-69
2023/05/28 01:58:54;;;;;;;3.60;2.70;;;;;;;16.75;nan;-16872.19;5033373;28;20577;-68
2023/05/28 02:01:29;;;;;;;5.53;3.28;;;;;;;16.60;nan;-19448.50;5033288;28;20276;-70
2023/05/28 02:03:57;;;;;;;3.33;2.70;;;;;;;16.33;nan;-15576.13;5034171;28;20575;-70
2023/05/28 02:06:24;;;;;;;3.90;3.10;;;;;;;16.73;nan;-14936.22;5032940;28;20179;-69
2023/05/28 02:08:50;;;;;;;5.03;3.28;;;;;;;16.57;nan;-16546.94;5033893;28;20237;-68
2023/05/28 02:11:16;;;;;;;5.32;2.78;;;;;;;16.34;nan;-17832.66;5033145;28;20298;-70
2023/05/28 02:13:41;;;;;;;4.13;2.80;;;;;;;16.73;nan;-12999.28;5034554;28;20638;-68
2023/05/28 02:16:07;;;;;;;6.57;2.80;;;;;;;16.83;nan;-12354.22;5033366;28;20527;-70
2023/05/28 02:18:36;;;;;;;3.95;2.78;;;;;;;16.79;nan;-12030.94;5034020;28;20202;-68
2023/05/28 02:21:02;;;;;;;5.13;3.00;;;;;;;16.69;nan;-15258.31;5033958;28;20221;-66
2023/05/28 02:23:27;;;;;;;5.78;3.28;;;;;;;16.41;nan;-15577.19;5033697;28;20195;-70
2023/05/28 02:25:52;;;;;;;3.88;2.78;;;;;;;16.41;nan;-15899.66;5033523;28;20167;-68
2023/05/28 02:28:18;;;;;;;5.57;2.92;;;;;;;16.55;nan;-13965.91;5033831;28;20561;-69
2023/05/28 02:30:43;;;;;;;5.13;3.15;;;;;;;16.34;nan;-12995.66;5033034;28;20183;-68
2023/05/28 02:33:08;;;;;;;5.47;3.13;;;;;;;16.39;nan;-14286.69;5033091;28;20668;-67
2023/05/28 02:35:34;;;;;;;4.78;2.95;;;;;;;16.85;nan;-12354.38;5033380;28;20180;-69
2023/05/28 02:37:59;;;;;;;4.35;2.90;;;;;;;16.82;nan;-11708.03;5032700;28;20179;-69
2023/05/28 02:40:25;;;;;;;5.97;3.15;;;;;;;16.46;nan;-10090.53;5032144;28;20183;-66
2023/05/28 02:42:51;;;;;;;4.47;2.80;;;;;;;16.67;nan;-9445.16;5035193;28;20258;-67
2023/05/28 02:45:16;;;;;;;4.40;2.97;;;;;;;17.00;nan;-7505.38;5032925;28;20294;-67
2023/05/28 02:47:42;;;;;;;4.53;2.90;;;;;;;16.49;nan;-9767.56;5032203;28;20180;-72
2023/05/28 02:50:08;;;;;;;4.28;2.97;;;;;;;16.87;nan;-10415.75;5032592;28;20187;-69
2023/05/28 02:52:33;;;;;;;4.45;3.00;;;;;;;17.00;nan;-9769.75;5033888;28;20179;-70
2023/05/28 02:54:59;;;;;;;5.18;2.85;;;;;;;16.66;nan;-11706.88;5032536;28;20179;-71
2023/05/28 02:57:25;;;;;;;7.25;2.88;;;;;;;16.60;nan;-11060.44;5032732;28;20261;-72
2023/05/28 02:59:51;;;;;;;5.22;3.28;;;;;;;16.75;nan;-12030.59;5025028;28;20258;-68
2023/05/28 03:02:16;;;;;;;5.55;3.17;;;;;;;16.81;nan;-13000.06;5032645;28;20187;-68
2023/05/28 03:04:42;;;;;;;4.72;3.05;;;;;;;16.86;nan;-13000.53;5033511;28;20203;-69
2023/05/28 03:07:08;;;;;;;6.82;3.13;;;;;;;16.86;nan;-12354.50;5031670;28;20282;-71
2023/05/28 03:09:36;;;;;;;4.18;2.97;;;;;;;16.89;nan;-12677.81;5033306;28;20258;-69
2023/05/28 03:12:01;;;;;;;3.63;2.72;;;;;;;16.85;nan;-11385.19;5031530;28;20190;-67
2023/05/28 03:14:26;;;;;;;4.80;3.10;;;;;;;17.10;nan;-8476.25;5032757;28;20187;-70
2023/05/28 03:16:52;;;;;;;5.88;3.28;;;;;;;17.06;nan;-10740.09;5032422;28;20186;-70
2023/05/28 03:19:17;;;;;;;4.53;3.47;;;;;;;17.04;nan;-12679.13;5033230;28;20293;-68
2023/05/28 03:21:43;;;;;;;3.65;3.03;;;;;;;17.04;nan;-13648.31;5032319;28;20199;-70
2023/05/28 03:24:08;;;;;;;6.97;3.45;;;;;;;17.01;nan;-14939.72;5031430;28;20199;-71
2023/05/28 03:26:33;;;;;;;4.60;3.10;;;;;;;16.83;nan;-14937.38;5032870;28;20192;-67
2023/05/28 03:28:59;;;;;;;4.15;3.20;;;;;;;17.11;nan;-13649.06;5032363;28;20179;-67
2023/05/28 03:31:29;;;;;;;4.03;3.08;;;;;;;17.16;nan;-14295.63;5032387;28;20183;-67
2023/05/28 03:33:55;;;;;;;5.05;3.25;;;;;;;17.16;nan;-14941.56;5031151;28;20179;-69
2023/05/28 03:36:21;;;;;;;5.22;3.45;;;;;;;16.95;nan;-16552.63;5031977;28;20273;-69
2023/05/28 03:38:47;;;;;;;6.00;3.40;;;;;;;17.06;nan;-16554.41;5032400;28;20662;-70
2023/05/28 03:41:13;;;;;;;5.75;3.20;;;;;;;17.12;nan;-15909.72;5032664;28;20186;-70
2023/05/28 03:43:38;;;;;;;4.68;3.10;;;;;;;16.87;nan;-17841.66;5034790;28;20210;-67
2023/05/28 03:46:03;;;;;;;6.07;3.15;;;;;;;16.82;nan;-18163.22;5031652;28;20211;-67
2023/05/28 03:48:29;;;;;;;5.05;3.45;;;;;;;16.71;nan;-18161.44;5031651;28;20179;-68
2023/05/28 03:50:55;;;;;;;5.05;3.22;;;;;;;16.68;nan;-18160.81;5031306;28;20199;-69
2023/05/28 03:53:21;;;;;;;3.95;2.85;;;;;;;16.82;nan;-19130.50;5031234;28;20643;-68
2023/05/28 03:55:46;;;;;;;5.85;3.42;;;;;;;16.81;nan;-19452.53;5031444;28;20241;-70
2023/05/28 03:58:14;;;;;;;5.70;3.78;;;;;;;16.77;nan;-20418.66;5031508;28;20203;-70
2023/05/28 04:00:40;;;;;;;5.07;3.35;;;;;;;17.00;nan;-20745.72;5029775;28;20221;-68
2023/05/28 04:03:05;;;;;;;4.88;3.05;;;;;;;16.98;nan;-20423.09;5031504;28;20183;-69
2023/05/28 04:05:33;;;;;;;4.90;3.13;;;;;;;17.00;nan;-20101.09;5032078;28;20293;-69
2023/05/28 04:07:59;;;;;;;6.60;3.40;;;;;;;16.92;nan;-16874.81;5031620;28;20642;-67
2023/05/28 04:10:24;;;;;;;4.70;3.20;;;;;;;16.87;nan;-16874.00;5032356;28;20275;-70
2023/05/28 04:12:50;;;;;;;4.50;3.30;;;;;;;17.04;nan;-18167.28;5032346;28;20175;-69
2023/05/28 04:15:15;;;;;;;5.65;3.47;;;;;;;17.22;nan;-19138.22;5031545;28;20183;-68
2023/05/28 04:17:40;;;;;;;8.60;3.60;;;;;;;17.04;nan;-20746.59;5032158;28;20197;-70
2023/05/28 04:20:06;;;;;;;5.45;3.58;;;;;;;16.94;nan;-21066.72;5030615;28;20194;-67
2023/05/28 04:22:33;;;;;;;5.38;3.45;;;;;;;16.81;nan;-21385.78;5031504;28;20186;-67
2023/05/28 04:24:59;;;;;;;7.15;3.92;;;;;;;16.99;nan;-21712.16;5031576;28;20207;-67
2023/05/28 04:27:25;;;;;;;5.65;3.47;;;;;;;16.88;nan;-22031.66;5032575;28;20610;-72
2023/05/28 04:29:52;;;;;;;7.05;3.75;;;;;;;16.84;nan;-22030.81;5032232;28;20179;-67
2023/05/28 04:32:17;;;;;;;4.88;3.25;;;;;;;17.11;nan;-22359.41;5031869;28;20224;-71
2023/05/28 04:34:43;;;;;;;6.97;4.25;;;;;;;16.85;nan;-22675.13;5030952;28;20179;-68
2023/05/28 04:37:08;;;;;;;7.03;3.50;;;;;;;17.18;nan;-22683.34;5031777;28;20179;-70
2023/05/28 04:39:34;;;;;;;4.75;3.15;;;;;;;17.08;nan;-22358.69;5031279;28;20190;-69
2023/05/28 04:42:03;;;;;;;7.53;3.90;;;;;;;16.94;nan;-22355.22;5031839;28;20187;-70
2023/05/28 04:44:30;;;;;;;4.90;3.40;;;;;;;17.01;nan;-22679.06;5030423;28;20199;-70
2023/05/28 04:46:58;;;;;;;5.97;3.67;;;;;;;16.75;nan;-22672.59;5034843;28;20669;-68
2023/05/28 04:49:24;;;;;;;8.15;3.92;;;;;;;16.79;nan;-22351.63;5031677;28;20175;-69
2023/05/28 04:51:50;;;;;;;5.50;3.78;;;;;;;17.07;nan;-22036.38;5031302;28;20196;-68
2023/05/28 04:54:15;;;;;;;5.47;3.80;;;;;;;16.95;nan;-22355.47;5031623;28;20256;-69
2023/05/28 04:56:40;;;;;;;6.95;4.20;;;;;;;16.74;nan;-22350.50;5031794;28;20685;-70
2023/05/28 04:59:09;;;;;;;6.05;3.70;;;;;;;16.65;nan;-22348.13;5031299;28;20572;-70
2023/05/28 05:01:35;;;;;;;7.07;4.22;;;;;;;16.83;nan;-22996.59;5029970;28;20276;-71
2023/05/28 05:04:01;;;;;;;6.43;4.18;;;;;;;16.62;nan;-22347.53;5030297;28;20240;-68
2023/05/28 05:06:27;;;;;;;6.70;3.90;;;;;;;16.89;nan;-22676.00;5030346;28;20318;-70
2023/05/28 05:08:53;;;;;;;6.35;4.00;;;;;;;16.67;nan;-22670.69;5031512;28;20180;-67
2023/05/28 05:11:20;;;;;;;5.10;3.65;;;;;;;16.79;nan;-22673.72;5030724;28;20242;-69
2023/05/28 05:13:45;;;;;;;7.05;4.10;;;;;;;16.92;nan;-22676.91;5031499;28;20270;-67
2023/05/28 05:16:10;;;;;;;5.10;3.67;;;;;;;16.66;nan;-22992.34;5030425;28;20569;-70
2023/05/28 05:18:36;;;;;;;7.15;3.80;;;;;;;16.67;nan;-22670.69;5031520;28;20179;-70
2023/05/28 05:21:01;;;;;;;6.35;4.05;;;;;;;16.79;nan;-22995.69;5033249;28;20183;-70
2023/05/28 05:23:27;;;;;;;6.80;4.03;;;;;;;16.89;nan;-22998.03;5034357;28;20187;-70
2023/05/28 05:25:52;;;;;;;8.32;3.80;;;;;;;16.58;nan;-23312.09;5035198;28;20264;-69
2023/05/28 05:28:17;;;;;;;5.53;3.70;;;;;;;16.61;nan;-23312.88;5035248;28;20190;-67
2023/05/28 05:30:43;;;;;;;6.22;4.28;;;;;;;16.90;nan;-22998.41;5033866;28;20184;-68
2023/05/28 05:33:09;;;;;;;5.70;3.78;;;;;;;17.04;nan;-23001.91;5034024;28;20183;-69
2023/05/28 05:35:34;;;;;;;8.07;4.43;;;;;;;16.71;nan;-23315.38;5034052;28;20248;-68
2023/05/28 05:38:00;;;;;;;7.53;4.35;;;;;;;17.12;nan;-22681.97;5035637;28;20183;-67
2023/05/28 05:40:25;;;;;;;6.93;4.28;;;;;;;17.18;nan;-22361.16;5035105;28;20233;-69
2023/05/28 05:42:51;;;;;;;5.90;3.60;;;;;;;17.30;nan;-22041.84;5034385;28;20560;-69
2023/05/28 05:45:16;;;;;;;6.50;3.53;;;;;;;17.06;nan;-22036.03;5033935;28;20564;-67
2023/05/28 05:47:42;;;;;;;7.22;4.07;;;;;;;17.05;nan;-22357.94;5035786;28;20175;-69
2023/05/28 05:50:10;;;;;;;5.63;3.60;;;;;;;17.19;nan;-21716.91;5033779;28;20341;-69
2023/05/28 05:52:36;;;;;;;5.93;3.70;;;;;;;17.20;nan;-22039.53;5033724;28;20210;-66
2023/05/28 05:55:01;;;;;;;6.90;3.65;;;;;;;17.65;nan;-21405.28;5033825;28;20717;-66
2023/05/28 05:57:26;;;;;;;5.68;3.75;;;;;;;17.80;nan;-20440.50;5032871;28;20180;-69
2023/05/28 05:59:52;;;;;;;7.05;4.22;;;;;;;17.71;nan;-20438.66;5033688;28;20223;-67
2023/05/28 06:02:17;;;;;;;6.03;4.05;;;;;;;17.77;nan;-21407.94;5034063;28;20179;-67
2023/05/28 06:04:43;;;;;;;7.20;4.10;;;;;;;17.79;nan;-21408.41;5033788;28;20199;-68
2023/05/28 06:07:08;;;;;;;6.45;4.05;;;;;;;17.39;nan;-21721.53;5032749;28;20183;-67
2023/05/28 06:09:34;;;;;;;9.50;5.25;;;;;;;17.69;nan;-22051.06;5033733;28;20533;-68
2023/05/28 06:11:59;;;;;;;6.07;3.95;;;;;;;17.38;nan;-21721.31;5033134;28;20186;-73
2023/05/28 06:14:27;;;;;;;7.55;4.40;;;;;;;17.60;nan;-22049.13;5034024;28;20222;-70
2023/05/28 06:16:53;;;;;;;6.43;4.00;;;;;;;17.65;nan;-22050.31;5033672;28;20658;-68
2023/05/28 06:19:19;;;;;;;7.47;3.88;;;;;;;17.63;nan;-22049.84;5033631;28;20224;-71
2023/05/28 06:21:44;;;;;;;8.75;4.65;;;;;;;17.28;nan;-22041.34;5034342;28;20266;-66
2023/05/28 06:24:10;;;;;;;7.20;4.57;;;;;;;17.84;nan;-21732.22;5033899;28;20295;-66
2023/05/28 06:26:36;;;;;;;5.53;3.67;;;;;;;17.69;nan;-21405.97;5033439;28;20187;-68
2023/05/28 06:29:01;;;;;;;7.63;3.70;;;;;;;17.37;nan;-22043.53;5033926;28;20179;-68
2023/05/28 06:31:26;;;;;;;11.10;3.47;;;;;;;17.53;nan;-22369.81;5033652;28;20172;-66
2023/05/28 06:33:52;;;;;;;6.90;3.78;;;;;;;17.16;nan;-22682.97;5032050;28;20254;-68
2023/05/28 06:36:17;;;;;;;6.65;3.53;;;;;;;17.20;nan;-23006.16;5033020;28;20240;-66
2023/05/28 06:38:43;;;;;;;6.20;3.60;;;;;;;17.34;nan;-22687.41;5033039;28;20187;-67
2023/05/28 06:41:08;;;;;;;4.53;2.90;;;;;;;17.40;nan;-21721.88;5032671;28;20619;-66
2023/05/28 06:43:34;;;;;;;5.88;3.45;;;;;;;17.44;nan;-22045.13;5043429;28;20186;-68
2023/05/28 06:46:00;;;;;;;5.00;3.03;;;;;;;17.70;nan;-21728.78;5032683;28;20183;-67
2023/05/28 06:48:25;;;;;;;7.18;3.50;;;;;;;17.58;nan;-21403.66;5031823;28;20183;-66
2023/05/28 06:50:51;;;;;;;5.40;2.92;;;;;;;17.89;nan;-21087.94;5032520;28;20180;-67
2023/05/28 06:53:16;;;;;;;3.63;2.80;;;;;;;17.71;nan;-21729.00;5031910;28;20183;-67
2023/05/28 06:55:42;;;;;;;5.25;2.92;;;;;;;17.80;nan;-21731.16;5033066;28;20258;-67
2023/05/28 06:58:07;;;;;;;5.90;3.38;;;;;;;17.74;nan;-21084.63;5032129;28;20186;-68
2023/05/28 07:00:32;;;;;;;4.32;2.85;;;;;;;17.86;nan;-20764.53;5032053;28;20219;-68
2023/05/28 07:02:58;;;;;;;5.40;3.45;;;;;;;17.99;nan;-19798.91;5032833;28;20183;-67
2023/05/28 07:05:23;;;;;;;4.68;3.00;;;;;;;18.12;nan;-18186.38;5031626;28;20209;-67
2023/05/28 07:07:49;;;;;;;5.45;3.30;;;;;;;18.25;nan;-18511.78;5032182;28;20601;-67
2023/05/28 07:10:14;;;;;;;3.90;2.80;;;;;;;18.61;nan;-18841.75;5032410;28;20215;-66
2023/05/28 07:12:40;;;;;;;6.78;3.58;;;;;;;18.58;nan;-17871.16;5031008;28;20798;-67
2023/05/28 07:15:06;;;;;;;4.53;2.83;;;;;;;18.59;nan;-16900.94;5032303;28;20361;-67
2023/05/28 07:17:32;;;;;;;5.00;2.88;;;;;;;18.67;nan;-17549.28;5032630;28;20211;-67
2023/05/28 07:19:57;;;;;;;6.35;3.15;;;;;;;19.01;nan;-17878.44;5030556;28;20222;-69
2023/05/28 07:22:24;;;;;;;4.50;3.00;;;;;;;19.15;nan;-16909.69;5033288;28;20234;-76
2023/05/28 07:24:49;;;;;;;5.35;3.22;;;;;;;19.18;nan;-16262.56;5030880;28;20207;-67
2023/05/28 07:27:15;;;;;;;5.47;2.72;;;;;;;19.31;nan;-16264.41;5031183;28;20249;-70
2023/05/28 07:29:40;;;;;;;5.22;3.33;;;;;;;19.37;nan;-16265.34;5031269;28;20594;-69
2023/05/28 07:32:06;;;;;;;4.85;2.90;;;;;;;19.08;nan;-15613.34;5031838;28;20191;-67
2023/05/28 07:34:31;;;;;;;4.50;2.90;;;;;;;19.27;nan;-16263.88;5032472;28;20183;-71
2023/05/28 07:36:57;;;;;;;3.85;2.65;;;;;;;19.09;nan;-16261.16;5031098;28;20676;-67
2023/05/28 07:39:22;;;;;;;4.65;2.85;;;;;;;19.26;nan;-16587.56;5029608;28;20190;-70
2023/05/28 07:41:48;;;;;;;4.00;2.70;;;;;;;19.04;nan;-17231.72;5032550;28;20187;-68
2023/05/28 07:44:15;;;;;;;6.18;3.45;;;;;;;19.15;nan;-17880.88;5031340;28;20211;-69
2023/05/28 07:46:40;;;;;;;8.25;3.78;;;;;;;19.02;nan;-16907.72;5031994;28;20195;-68
2023/05/28 07:49:06;;;;;;;4.22;2.88;;;;;;;19.00;nan;-17231.09;5031096;28;20187;-69
2023/05/28 07:51:32;;;;;;;5.38;3.05;;;;;;;19.17;nan;-18204.91;5030458;28;20183;-67
2023/05/28 07:53:58;;;;;;;4.93;2.72;;;;;;;19.42;nan;-17237.84;5030960;28;20282;-70
2023/05/28 07:56:23;;;;;;;4.60;2.85;;;;;;;19.41;nan;-16589.91;5030499;28;20569;-68
2023/05/28 07:58:49;;;;;;;3.67;2.30;;;;;;;19.29;nan;-14644.13;5032151;28;20180;-69
2023/05/28 08:01:14;;;;;;;4.53;2.70;;;;;;;19.63;nan;-14648.22;5031857;28;20660;-67
2023/05/28 08:03:40;;;;;;;3.80;2.70;;;;;;;19.59;nan;-13999.13;5031513;28;20617;-68
2023/05/28 08:06:06;;;;;;;6.88;2.67;;;;;;;19.70;nan;-14000.34;5031907;28;20171;-69
2023/05/28 08:08:32;;;;;;;3.70;2.55;;;;;;;19.76;nan;-14001.00;5030600;28;20183;-68
2023/05/28 08:10:57;;;;;;;4.15;2.50;;;;;;;19.61;nan;-14323.66;5030273;28;20179;-68
2023/05/28 08:13:23;;;;;;;4.70;2.92;;;;;;;20.05;nan;-12056.34;5030640;28;20214;-67
2023/05/28 08:15:48;;;;;;;2.30;1.92;;;;;;;19.97;nan;-7831.97;5062979;28;20171;-70
2023/05/28 08:18:14;;;;;;;7.45;2.38;;;;;;;19.83;nan;-8481.84;5030181;28;20569;-70
2023/05/28 08:20:40;;;;;;;3.90;2.50;;;;;;;20.20;nan;-7832.16;5029823;28;20179;-67
2023/05/28 08:23:05;;;;;;;4.40;2.35;;;;;;;19.82;nan;-7181.69;5031423;28;20281;-69
2023/05/28 08:25:32;;;;;;;3.42;2.30;;;;;;;19.74;nan;-7181.69;5030334;28;20722;-66
2023/05/28 08:27:58;;;;;;;6.90;2.72;;;;;;;19.93;nan;-5230.13;5029300;28;20531;-67
2023/05/28 08:30:23;;;;;;;5.55;2.10;;;;;;;20.20;nan;-6856.31;5030265;28;20198;-68
2023/05/28 08:32:49;;;;;;;5.72;2.47;;;;;;;20.41;nan;-4902.94;5030396;28;20175;-69
2023/05/28 08:35:15;;;;;;;2.80;2.25;;;;;;;20.61;nan;-5227.88;5030331;28;20183;-69
2023/05/28 08:37:40;;;;;;;3.65;2.63;;;;;;;20.51;nan;-3925.34;5030871;28;20206;-68
2023/05/28 08:40:08;;;;;;;4.88;2.45;;;;;;;20.74;nan;-337.16;5030129;28;20183;-70
2023/05/28 08:42:34;;;;;;;4.47;2.20;;;;;;;21.13;nan;3914.16;5030692;28;20175;-69
2023/05/28 08:45:00;;;;;;;3.17;2.17;;;;;;;;;;5030106;28;20210;-69
2023/05/28 08:47:27;;;;;;;4.55;2.20;;;;;;;21.86;nan;13431.97;5029004;28;21096;-69
2023/05/28 08:49:53;;;;;;;2.65;2.20;;;;;;;22.38;nan;25956.19;5033147;28;20271;-69
2023/05/28 08:52:20;;;;;;;2.88;1.83;;;;;;;22.38;nan;27935.22;5028969;28;20623;-69
2023/05/28 08:54:46;;;;;;;4.60;2.60;;;;;;;22.38;nan;33218.38;5029660;28;20190;-68
2023/05/28 08:57:12;;;;;;;3.00;2.03;;;;;;;22.58;nan;40293.88;5034975;28;20221;-68
2023/05/28 08:59:38;;;;;;;2.92;1.92;;;;;;;23.00;nan;38488.41;5033661;28;20214;-69
2023/05/28 09:02:04;;;;;;;2.72;2.13;;;;;;;23.09;nan;45870.28;5034712;28;20187;-68
2023/05/28 09:04:30;;;;;;;3.35;2.00;;;;;;;23.20;nan;48302.22;5033052;28;20206;-72
2023/05/28 09:06:56;;;;;;;5.50;2.40;;;;;;;23.66;nan;50009.88;5034618;28;20197;-69
2023/05/28 09:09:23;;;;;;;3.08;2.13;;;;;;;23.66;nan;49552.28;5032768;28;20187;-69
2023/05/28 09:11:48;;;;;;;3.42;2.13;;;;;;;23.83;nan;51781.25;5034279;28;20179;-68
2023/05/28 09:14:17;;;;;;;2.75;2.00;;;;;;;23.85;nan;51385.09;5033611;28;20277;-69
2023/05/28 09:16:44;;;;;;;5.05;2.08;;;;;;;23.97;nan;52518.44;5033255;28;20175;-70
2023/05/28 09:19:10;;;;;;;3.85;2.15;;;;;;;23.88;nan;52126.53;5034376;28;20252;-71
2023/05/28 09:21:37;;;;;;;3.53;2.00;;;;;;;23.87;nan;53299.47;5034236;28;20623;-70
2023/05/28 09:24:05;;;;;;;3.33;2.00;;;;;;;23.54;nan;54607.44;5034587;28;20207;-70
2023/05/28 09:26:31;;;;;;;2.63;1.90;;;;;;;23.59;nan;54368.34;5034765;28;20273;-68
2023/05/28 09:28:57;;;;;;;2.92;1.83;;;;;;;23.28;nan;56117.03;5034443;28;20266;-70
2023/05/28 09:31:33;;;;;;;3.45;1.95;;;;;;;23.36;nan;56786.66;5033742;28;20325;-69
2023/05/28 09:34:01;;;;;;;2.20;1.70;;;;;;;23.55;nan;56907.72;5066452;28;20183;-69
2023/05/28 09:36:29;;;;;;;3.33;2.10;;;;;;;23.60;nan;57202.69;5034479;28;20187;-68
2023/05/28 09:38:55;;;;;;;2.60;1.80;;;;;;;23.89;nan;57120.22;5032952;28;20254;-70
2023/05/28 09:41:23;;;;;;;2.97;2.00;;;;;;;24.25;nan;57653.28;5033429;28;20646;-69
2023/05/28 09:44:00;;;;;;;2.47;1.85;;;;;;;23.44;nan;57375.91;5032542;28;20700;-69
2023/05/28 09:46:33;;;;;;;2.10;1.70;;;;;;;23.54;nan;57654.84;5032516;28;20194;-70
2023/05/28 09:49:00;;;;;;;2.60;1.70;;;;;;;24.31;nan;58606.72;5038837;28;20702;-69
2023/05/28 09:51:29;;;;;;;2.42;1.90;;;;;;;;;;5033286;28;20258;-73
2023/05/28 09:54:01;;;;;;;2.58;2.05;;;;;;;24.96;nan;59309.19;5032020;28;20183;-71
2023/05/28 09:56:31;;;;;;;2.85;2.10;;;;;;;25.14;nan;59952.38;5034216;28;20198;-69
2023/05/28 09:59:02;;;;;;;3.08;2.10;;;;;;;24.90;nan;59979.28;5034309;28;20187;-69
2023/05/28 10:01:34;;;;;;;3.05;2.17;;;;;;;24.87;nan;59827.06;5033081;28;20230;-71
2023/05/28 10:04:10;;;;;;;2.47;1.90;;;;;;;25.08;nan;59630.09;5032881;28;20199;-71
2023/05/28 10:06:40;;;;;;;2.28;1.60;;;;;;;25.34;nan;59629.31;5034031;28;20560;-69
2023/05/28 10:09:08;;;;;;;2.47;1.80;;;;;;;24.65;nan;59792.38;5032957;28;20183;-69
2023/05/28 10:11:43;;;;;;;2.58;1.80;;;;;;;24.95;nan;60280.09;5033042;28;20213;-69
2023/05/28 10:14:09;;;;;;;2.35;1.98;;;;;;;25.05;nan;60559.84;5033208;28;20185;-69
2023/05/28 10:16:35;;;;;;;2.35;1.85;;;;;;;24.32;nan;60581.00;5032504;28;20202;-68
2023/05/28 10:19:01;;;;;;;2.53;1.83;;;;;;;25.00;nan;60737.22;5033266;28;20167;-70
2023/05/28 10:21:27;;;;;;;3.63;2.20;;;;;;;25.00;nan;60162.78;5032789;28;20214;-70
2023/05/28 10:23:54;;;;;;;3.55;2.15;;;;;;;24.91;nan;60557.31;5033607;28;20702;-69
2023/05/28 10:26:21;;;;;;;4.90;2.17;;;;;;;23.97;nan;60581.72;5032493;28;20183;-68
2023/05/28 10:28:54;;;;;;;3.95;2.40;;;;;;;24.25;nan;60448.47;5033432;28;20191;-68
2023/05/28 10:31:22;;;;;;;4.45;3.00;;;;;;;23.97;nan;60397.03;5064811;28;20187;-69
2023/05/28 10:33:48;;;;;;;2.75;2.10;;;;;;;24.13;nan;59832.84;5032608;28;20211;-70
2023/05/28 10:36:15;;;;;;;3.53;2.05;;;;;;;24.19;nan;60355.66;5033673;28;20226;-69
2023/05/28 10:38:53;;;;;;;2.75;2.20;;;;;;;24.11;nan;60401.56;5033230;28;20191;-68
2023/05/28 10:41:21;;;;;;;3.40;2.30;;;;;;;23.91;nan;60664.31;5032790;28;20179;-68
2023/05/28 10:43:50;;;;;;;3.15;2.40;;;;;;;23.93;nan;60580.44;5033024;28;20222;-68
2023/05/28 10:46:40;;;;;;;2.97;2.40;;;;;;;23.90;nan;60341.75;5032589;28;20187;-68
2023/05/28 10:49:16;;;;;;;3.25;2.30;;;;;;;23.43;nan;59253.31;5034865;28;20221;-68
2023/05/28 10:51:56;;;;;;;3.25;2.67;;;;;;;23.16;nan;59521.34;4486527;28;20877;-70
2023/05/28 10:54:33;;;;;;;4.95;2.63;;;;;;;22.87;nan;57766.19;4854860;28;20191;-68
2023/05/28 10:57:07;;;;;;;3.25;2.30;;;;;;;22.52;nan;56715.03;5031909;28;20327;-69
2023/05/28 10:59:47;;;;;;;4.03;2.70;;;;;;;;;;5032251;28;20219;-69
2023/05/28 11:02:19;;;;;;;4.93;2.78;;;;;;;21.50;nan;51646.50;5029834;28;20206;-69
2023/05/28 11:04:45;;;;;;;6.90;4.07;;;;;;;20.85;nan;38386.06;5032291;28;20203;-69
2023/05/28 11:07:12;;;;;;;3.72;2.53;;;;;;;20.96;nan;13729.63;5032177;28;20187;-68
2023/05/28 11:09:38;;;;;;;4.95;2.72;;;;;;;20.87;nan;4236.19;5031236;28;20569;-71
2023/05/28 11:12:05;;;;;;;6.22;3.00;;;;;;;20.97;nan;4891.81;5033724;28;20179;-70
2023/05/28 11:14:38;;;;;;;3.88;2.13;;;;;;;21.15;nan;8494.41;5031703;28;20191;-68
2023/05/28 11:17:11;;;;;;;4.60;2.95;;;;;;;20.89;nan;11106.38;5031026;28;20190;-69
2023/05/28 11:19:47;;;;;;;4.53;2.15;;;;;;;20.98;nan;12091.94;5030997;28;20736;-68
2023/05/28 11:22:13;;;;;;;6.25;3.30;;;;;;;21.14;nan;15047.56;5031939;28;20571;-68
2023/05/28 11:25:12;;;;;;;7.60;3.20;;;;;;;21.75;nan;19998.00;5031712;28;20305;-68
2023/05/28 11:27:40;;;;;;;4.00;2.65;;;;;;;21.75;nan;29547.63;5012679;28;20203;-68
2023/05/28 11:30:16;;;;;;;5.70;2.90;;;;;;;21.94;nan;30878.81;5031442;28;20249;-68
2023/05/28 11:32:42;;;;;;;4.47;2.70;;;;;;;22.23;nan;25947.75;5031082;28;20186;-69
2023/05/28 11:35:13;;;;;;;5.63;2.67;;;;;;;22.00;nan;22971.03;5032457;28;20175;-68
2023/05/28 11:37:40;;;;;;;4.30;2.92;;;;;;;22.35;nan;20682.91;5031165;28;21185;-69
2023/05/28 11:40:10;;;;;;;6.15;2.70;;;;;;;22.24;nan;21665.69;5032986;28;20175;-69
2023/05/28 11:42:41;;;;;;;3.83;2.33;;;;;;;22.45;nan;26949.19;5030799;28;20719;-68
2023/05/28 11:45:08;;;;;;;3.42;2.33;;;;;;;22.98;nan;34911.50;5032040;28;20272;-68